KAKR

Akron Fulton International Airport

Akron, Ohio, USA
METAR KAKR 260254Z AUTO 29013KT 10SM CLR 06/00 A3008 RMK AO2 SLP191 T00560000 51024
Observed Flight Rules
Feb-26 @ 02:54 UTC (19 minutes ago) Visual Flight Rules
Wind Visibility Clouds
290° at 13 knots 10 miles
  • Clear skies
Temperatures Readings
Current 6°C / 43°F
Dewpoint 0°C / 32°F
Humidity 66%
Altimeter 30.08" Hg
Pressure 1019.1 hPa
Elevation 363
METAR KAKR 260254Z AUTO 29013KT 10SM CLR 06/00 A3008 RMK AO2 SLP191 T00560000 51024
Observed Flight Rules
Feb-26 @ 02:54 UTC
(19 minutes ago)
VFR
Wind Visibility
290° at 13 knots 10 miles
Clouds
  • Clear skies
Temperature Dewpoint
6°C / 43°F 0°C / 32°F
Humidity Altimeter Pressure
66% 30.08" Hg 1019.1 hPa